sensor_id;sensor_type;location;lat;lon;timestamp;temperature;humidity
48744;DHT22;34538;48.836;9.174;2023-04-01T00:00:53;9.00;99.90
48744;DHT22;34538;48.836;9.174;2023-04-01T00:03:20;9.00;99.90
48744;DHT22;34538;48.836;9.174;2023-04-01T00:05:47;9.00;99.90
48744;DHT22;34538;48.836;9.174;2023-04-01T00:08:14;9.00;99.90
48744;DHT22;34538;48.836;9.174;2023-04-01T00:10:41;9.00;99.90
48744;DHT22;34538;48.836;9.174;2023-04-01T00:13:08;9.00;99.90
48744;DHT22;34538;48.836;9.174;2023-04-01T00:15:36;9.00;99.90
48744;DHT22;34538;48.836;9.174;2023-04-01T00:18:04;9.10;99.90
48744;DHT22;34538;48.836;9.174;2023-04-01T00:20:32;9.10;99.90
48744;DHT22;34538;48.836;9.174;2023-04-01T00:22:59;9.10;99.90
48744;DHT22;34538;48.836;9.174;2023-04-01T00:25:26;9.20;99.90
48744;DHT22;34538;48.836;9.174;2023-04-01T00:27:52;9.20;99.90
48744;DHT22;34538;48.836;9.174;2023-04-01T00:30:19;9.30;99.90
48744;DHT22;34538;48.836;9.174;2023-04-01T00:32:46;9.20;99.90
48744;DHT22;34538;48.836;9.174;2023-04-01T00:35:14;9.30;99.90
48744;DHT22;34538;48.836;9.174;2023-04-01T00:37:42;9.20;99.90
48744;DHT22;34538;48.836;9.174;2023-04-01T00:40:23;9.20;99.90
48744;DHT22;34538;48.836;9.174;2023-04-01T00:42:50;9.20;99.90
48744;DHT22;34538;48.836;9.174;2023-04-01T00:45:33;9.20;99.90
48744;DHT22;34538;48.836;9.174;2023-04-01T00:48:03;9.20;99.90
48744;DHT22;34538;48.836;9.174;2023-04-01T00:50:33;9.20;99.90
48744;DHT22;34538;48.836;9.174;2023-04-01T00:53:02;9.20;99.90
48744;DHT22;34538;48.836;9.174;2023-04-01T00:55:32;9.30;99.90
48744;DHT22;34538;48.836;9.174;2023-04-01T00:58:03;9.30;99.90
48744;DHT22;34538;48.836;9.174;2023-04-01T01:00:32;9.30;99.90
48744;DHT22;34538;48.836;9.174;2023-04-01T01:02:59;9.30;99.90
48744;DHT22;34538;48.836;9.174;2023-04-01T01:05:36;9.30;99.90
48744;DHT22;34538;48.836;9.174;2023-04-01T01:08:13;9.40;99.90
48744;DHT22;34538;48.836;9.174;2023-04-01T01:10:43;9.40;99.90
48744;DHT22;34538;48.836;9.174;2023-04-01T01:13:17;9.40;99.90
48744;DHT22;34538;48.836;9.174;2023-04-01T01:15:50;9.40;99.90
48744;DHT22;34538;48.836;9.174;2023-04-01T01:18:25;9.40;99.90
48744;DHT22;34538;48.836;9.174;2023-04-01T01:24:26;9.40;99.90
48744;DHT22;34538;48.836;9.174;2023-04-01T01:26:59;9.40;99.90
48744;DHT22;34538;48.836;9.174;2023-04-01T01:29:47;9.40;99.90
48744;DHT22;34538;48.836;9.174;2023-04-01T01:32:31;9.40;99.90
48744;DHT22;34538;48.836;9.174;2023-04-01T01:35:15;9.40;99.90
48744;DHT22;34538;48.836;9.174;2023-04-01T01:37:43;9.40;99.90
48744;DHT22;34538;48.836;9.174;2023-04-01T01:40:13;9.40;99.90
48744;DHT22;34538;48.836;9.174;2023-04-01T01:42:46;9.40;99.90
48744;DHT22;34538;48.836;9.174;2023-04-01T01:45:15;9.40;99.90
48744;DHT22;34538;48.836;9.174;2023-04-01T01:47:44;9.40;99.90
48744;DHT22;34538;48.836;9.174;2023-04-01T01:50:14;9.40;99.90
48744;DHT22;34538;48.836;9.174;2023-04-01T01:52:41;9.30;99.90
48744;DHT22;34538;48.836;9.174;2023-04-01T01:55:26;9.30;99.90
48744;DHT22;34538;48.836;9.174;2023-04-01T01:57:56;9.20;99.90
48744;DHT22;34538;48.836;9.174;2023-04-01T02:00:24;9.20;99.90
48744;DHT22;34538;48.836;9.174;2023-04-01T02:02:53;9.10;99.90
48744;DHT22;34538;48.836;9.174;2023-04-01T02:05:23;9.10;99.90
48744;DHT22;34538;48.836;9.174;2023-04-01T02:07:55;9.10;99.90
48744;DHT22;34538;48.836;9.174;2023-04-01T02:10:25;9.10;99.90
48744;DHT22;34538;48.836;9.174;2023-04-01T02:12:57;9.10;99.90
48744;DHT22;34538;48.836;9.174;2023-04-01T02:15:24;9.10;99.90
48744;DHT22;34538;48.836;9.174;2023-04-01T02:17:54;9.10;99.90
48744;DHT22;34538;48.836;9.174;2023-04-01T02:20:25;9.10;99.90
48744;DHT22;34538;48.836;9.174;2023-04-01T02:22:54;9.00;99.90
48744;DHT22;34538;48.836;9.174;2023-04-01T02:25:23;9.00;99.90
48744;DHT22;34538;48.836;9.174;2023-04-01T02:27:52;9.00;99.90
48744;DHT22;34538;48.836;9.174;2023-04-01T02:30:21;9.00;99.90
48744;DHT22;34538;48.836;9.174;2023-04-01T02:32:48;9.00;99.90
48744;DHT22;34538;48.836;9.174;2023-04-01T02:35:17;9.00;99.90
48744;DHT22;34538;48.836;9.174;2023-04-01T02:37:46;8.90;99.90
48744;DHT22;34538;48.836;9.174;2023-04-01T02:40:15;8.90;99.90
48744;DHT22;34538;48.836;9.174;2023-04-01T02:42:42;8.90;99.90
48744;DHT22;34538;48.836;9.174;2023-04-01T02:45:10;8.80;99.90
48744;DHT22;34538;48.836;9.174;2023-04-01T02:47:37;8.80;99.90
48744;DHT22;34538;48.836;9.174;2023-04-01T02:50:06;8.80;99.90
48744;DHT22;34538;48.836;9.174;2023-04-01T02:52:33;8.80;99.90
48744;DHT22;34538;48.836;9.174;2023-04-01T02:55:03;8.80;99.90
48744;DHT22;34538;48.836;9.174;2023-04-01T02:57:30;8.80;99.90
48744;DHT22;34538;48.836;9.174;2023-04-01T02:59:57;8.80;99.90
48744;DHT22;34538;48.836;9.174;2023-04-01T03:02:24;8.90;99.90
48744;DHT22;34538;48.836;9.174;2023-04-01T03:04:51;8.90;99.90
48744;DHT22;34538;48.836;9.174;2023-04-01T03:07:18;8.80;99.90
48744;DHT22;34538;48.836;9.174;2023-04-01T03:09:44;8.80;99.90
48744;DHT22;34538;48.836;9.174;2023-04-01T03:12:13;8.80;99.90
48744;DHT22;34538;48.836;9.174;2023-04-01T03:14:48;8.80;99.90
48744;DHT22;34538;48.836;9.174;2023-04-01T03:17:16;8.90;99.90
48744;DHT22;34538;48.836;9.174;2023-04-01T03:19:43;8.90;99.90
48744;DHT22;34538;48.836;9.174;2023-04-01T03:22:11;8.90;99.90
48744;DHT22;34538;48.836;9.174;2023-04-01T03:24:38;8.90;99.90
48744;DHT22;34538;48.836;9.174;2023-04-01T03:27:04;8.90;99.90
48744;DHT22;34538;48.836;9.174;2023-04-01T03:29:33;8.90;99.90
48744;DHT22;34538;48.836;9.174;2023-04-01T03:32:00;8.90;99.90
48744;DHT22;34538;48.836;9.174;2023-04-01T03:34:27;8.90;99.90
48744;DHT22;34538;48.836;9.174;2023-04-01T03:36:54;8.90;99.90
48744;DHT22;34538;48.836;9.174;2023-04-01T03:39:21;8.90;99.90
48744;DHT22;34538;48.836;9.174;2023-04-01T03:41:49;8.90;99.90
48744;DHT22;34538;48.836;9.174;2023-04-01T03:44:16;8.80;99.90
48744;DHT22;34538;48.836;9.174;2023-04-01T03:46:47;8.90;99.90
48744;DHT22;34538;48.836;9.174;2023-04-01T03:49:14;8.80;99.90
48744;DHT22;34538;48.836;9.174;2023-04-01T03:51:43;8.80;99.90
48744;DHT22;34538;48.836;9.174;2023-04-01T03:54:10;8.80;99.90
48744;DHT22;34538;48.836;9.174;2023-04-01T03:56:38;8.80;99.90
48744;DHT22;34538;48.836;9.174;2023-04-01T03:59:06;8.80;99.90
48744;DHT22;34538;48.836;9.174;2023-04-01T04:01:33;8.80;99.90
48744;DHT22;34538;48.836;9.174;2023-04-01T04:04:02;8.70;99.90
48744;DHT22;34538;48.836;9.174;2023-04-01T04:06:29;8.70;99.90
48744;DHT22;34538;48.836;9.174;2023-04-01T04:08:56;8.70;99.90
48744;DHT22;34538;48.836;9.174;2023-04-01T04:11:23;8.70;99.90
48744;DHT22;34538;48.836;9.174;2023-04-01T04:13:52;8.70;99.90
48744;DHT22;34538;48.836;9.174;2023-04-01T04:16:19;8.70;99.90
48744;DHT22;34538;48.836;9.174;2023-04-01T04:18:52;8.70;99.90
48744;DHT22;34538;48.836;9.174;2023-04-01T04:21:20;8.70;99.90
48744;DHT22;34538;48.836;9.174;2023-04-01T04:23:47;8.70;99.90
48744;DHT22;34538;48.836;9.174;2023-04-01T04:26:16;8.80;99.90
48744;DHT22;34538;48.836;9.174;2023-04-01T04:28:49;8.80;99.90
48744;DHT22;34538;48.836;9.174;2023-04-01T04:31:18;8.80;99.90
48744;DHT22;34538;48.836;9.174;2023-04-01T04:33:46;8.80;99.90
48744;DHT22;34538;48.836;9.174;2023-04-01T04:36:14;8.80;99.90
48744;DHT22;34538;48.836;9.174;2023-04-01T04:38:43;8.70;99.90
48744;DHT22;34538;48.836;9.174;2023-04-01T04:41:11;8.70;99.90
48744;DHT22;34538;48.836;9.174;2023-04-01T04:43:39;8.70;99.90
48744;DHT22;34538;48.836;9.174;2023-04-01T04:46:06;8.70;99.90
48744;DHT22;34538;48.836;9.174;2023-04-01T04:48:33;8.70;99.90
48744;DHT22;34538;48.836;9.174;2023-04-01T04:51:01;8.70;99.90
48744;DHT22;34538;48.836;9.174;2023-04-01T04:53:28;8.70;99.90
48744;DHT22;34538;48.836;9.174;2023-04-01T04:55:56;8.70;99.90
48744;DHT22;34538;48.836;9.174;2023-04-01T04:58:43;8.60;99.90
48744;DHT22;34538;48.836;9.174;2023-04-01T05:01:16;8.60;99.90
48744;DHT22;34538;48.836;9.174;2023-04-01T05:03:43;8.60;99.90
48744;DHT22;34538;48.836;9.174;2023-04-01T05:06:12;8.60;99.90
48744;DHT22;34538;48.836;9.174;2023-04-01T05:08:40;8.60;99.90
48744;DHT22;34538;48.836;9.174;2023-04-01T05:11:13;8.50;99.90
48744;DHT22;34538;48.836;9.174;2023-04-01T05:13:42;8.50;99.90
48744;DHT22;34538;48.836;9.174;2023-04-01T05:16:09;8.50;99.90
48744;DHT22;34538;48.836;9.174;2023-04-01T05:18:38;8.60;99.90
48744;DHT22;34538;48.836;9.174;2023-04-01T05:21:07;8.60;99.90
48744;DHT22;34538;48.836;9.174;2023-04-01T05:23:34;8.60;99.90
48744;DHT22;34538;48.836;9.174;2023-04-01T05:26:03;8.60;99.90
48744;DHT22;34538;48.836;9.174;2023-04-01T05:28:33;8.50;99.90
48744;DHT22;34538;48.836;9.174;2023-04-01T05:31:00;8.50;99.90
48744;DHT22;34538;48.836;9.174;2023-04-01T05:33:33;8.40;99.90
48744;DHT22;34538;48.836;9.174;2023-04-01T05:36:09;8.50;99.90
48744;DHT22;34538;48.836;9.174;2023-04-01T05:38:36;8.50;99.90
48744;DHT22;34538;48.836;9.174;2023-04-01T05:41:05;8.50;99.90
48744;DHT22;34538;48.836;9.174;2023-04-01T05:43:38;8.60;99.90
48744;DHT22;34538;48.836;9.174;2023-04-01T05:46:25;8.60;99.90
48744;DHT22;34538;48.836;9.174;2023-04-01T05:48:58;8.70;99.90
48744;DHT22;34538;48.836;9.174;2023-04-01T05:51:25;8.70;99.90
48744;DHT22;34538;48.836;9.174;2023-04-01T05:53:52;8.70;99.90
48744;DHT22;34538;48.836;9.174;2023-04-01T05:56:19;8.80;99.90
48744;DHT22;34538;48.836;9.174;2023-04-01T05:58:53;8.90;99.90
48744;DHT22;34538;48.836;9.174;2023-04-01T06:01:22;9.00;99.90
48744;DHT22;34538;48.836;9.174;2023-04-01T06:03:49;9.00;99.90
48744;DHT22;34538;48.836;9.174;2023-04-01T06:06:23;9.10;99.90
48744;DHT22;34538;48.836;9.174;2023-04-01T06:08:51;9.20;99.90
48744;DHT22;34538;48.836;9.174;2023-04-01T06:11:24;9.40;99.90
48744;DHT22;34538;48.836;9.174;2023-04-01T06:14:07;9.40;99.90
48744;DHT22;34538;48.836;9.174;2023-04-01T06:16:58;9.50;99.90
48744;DHT22;34538;48.836;9.174;2023-04-01T06:19:32;9.60;99.90
48744;DHT22;34538;48.836;9.174;2023-04-01T06:22:22;9.70;99.90
48744;DHT22;34538;48.836;9.174;2023-04-01T06:25:26;9.70;99.90
48744;DHT22;34538;48.836;9.174;2023-04-01T06:30:50;9.70;99.90
48744;DHT22;34538;48.836;9.174;2023-04-01T06:33:41;9.80;99.90
48744;DHT22;34538;48.836;9.174;2023-04-01T06:39:27;10.00;99.90
48744;DHT22;34538;48.836;9.174;2023-04-01T06:45:00;10.10;99.90
48744;DHT22;34538;48.836;9.174;2023-04-01T06:48:00;10.10;99.90
48744;DHT22;34538;48.836;9.174;2023-04-01T06:50:55;10.10;99.90
48744;DHT22;34538;48.836;9.174;2023-04-01T06:53:58;10.10;99.90
48744;DHT22;34538;48.836;9.174;2023-04-01T06:56:49;10.20;99.90
48744;DHT22;34538;48.836;9.174;2023-04-01T06:59:25;10.20;99.90
48744;DHT22;34538;48.836;9.174;2023-04-01T07:01:54;10.20;99.90
48744;DHT22;34538;48.836;9.174;2023-04-01T07:04:26;10.20;99.90
48744;DHT22;34538;48.836;9.174;2023-04-01T07:06:57;10.20;99.90
48744;DHT22;34538;48.836;9.174;2023-04-01T07:09:27;10.20;99.90
48744;DHT22;34538;48.836;9.174;2023-04-01T07:12:40;10.30;99.90
48744;DHT22;34538;48.836;9.174;2023-04-01T07:15:32;10.40;99.90
48744;DHT22;34538;48.836;9.174;2023-04-01T07:18:05;10.40;99.90
48744;DHT22;34538;48.836;9.174;2023-04-01T07:20:38;10.40;99.90
48744;DHT22;34538;48.836;9.174;2023-04-01T07:23:10;10.40;99.90
48744;DHT22;34538;48.836;9.174;2023-04-01T07:25:55;10.40;99.90
48744;DHT22;34538;48.836;9.174;2023-04-01T07:28:44;10.40;99.90
48744;DHT22;34538;48.836;9.174;2023-04-01T07:31:40;10.40;99.90
48744;DHT22;34538;48.836;9.174;2023-04-01T07:34:11;10.40;99.90
48744;DHT22;34538;48.836;9.174;2023-04-01T07:36:45;10.40;99.90
48744;DHT22;34538;48.836;9.174;2023-04-01T07:39:25;10.40;99.90
48744;DHT22;34538;48.836;9.174;2023-04-01T07:42:24;10.40;99.90
48744;DHT22;34538;48.836;9.174;2023-04-01T07:45:02;10.40;99.90
48744;DHT22;34538;48.836;9.174;2023-04-01T07:47:45;10.40;99.90
48744;DHT22;34538;48.836;9.174;2023-04-01T07:50:24;10.40;99.90
48744;DHT22;34538;48.836;9.174;2023-04-01T07:53:04;10.50;99.90
48744;DHT22;34538;48.836;9.174;2023-04-01T07:55:39;10.50;99.90
48744;DHT22;34538;48.836;9.174;2023-04-01T07:58:11;10.50;99.90
48744;DHT22;34538;48.836;9.174;2023-04-01T08:00:48;10.60;99.90
48744;DHT22;34538;48.836;9.174;2023-04-01T08:03:33;10.60;99.90
48744;DHT22;34538;48.836;9.174;2023-04-01T08:06:10;10.70;99.90
48744;DHT22;34538;48.836;9.174;2023-04-01T08:08:50;10.70;99.90
48744;DHT22;34538;48.836;9.174;2023-04-01T08:11:51;10.80;99.90
48744;DHT22;34538;48.836;9.174;2023-04-01T08:14:50;10.80;99.90
48744;DHT22;34538;48.836;9.174;2023-04-01T08:17:47;10.90;99.90
48744;DHT22;34538;48.836;9.174;2023-04-01T08:20:28;10.90;99.90
48744;DHT22;34538;48.836;9.174;2023-04-01T08:23:00;10.90;99.90
48744;DHT22;34538;48.836;9.174;2023-04-01T08:25:38;10.90;99.90
48744;DHT22;34538;48.836;9.174;2023-04-01T08:28:13;11.00;99.90
48744;DHT22;34538;48.836;9.174;2023-04-01T08:30:44;11.00;99.90
48744;DHT22;34538;48.836;9.174;2023-04-01T08:33:20;11.10;99.90
48744;DHT22;34538;48.836;9.174;2023-04-01T08:35:57;11.00;99.90
48744;DHT22;34538;48.836;9.174;2023-04-01T08:38:30;11.00;99.90
48744;DHT22;34538;48.836;9.174;2023-04-01T08:41:01;10.90;99.90
48744;DHT22;34538;48.836;9.174;2023-04-01T08:44:04;10.80;99.90
48744;DHT22;34538;48.836;9.174;2023-04-01T08:47:14;10.60;99.90
48744;DHT22;34538;48.836;9.174;2023-04-01T08:53:14;10.20;99.90
48744;DHT22;34538;48.836;9.174;2023-04-01T08:56:03;10.00;99.90
48744;DHT22;34538;48.836;9.174;2023-04-01T08:58:53;9.80;99.90
48744;DHT22;34538;48.836;9.174;2023-04-01T09:01:51;9.70;99.90
48744;DHT22;34538;48.836;9.174;2023-04-01T09:05:06;9.70;99.90
48744;DHT22;34538;48.836;9.174;2023-04-01T09:07:48;9.60;99.90
48744;DHT22;34538;48.836;9.174;2023-04-01T09:17:19;9.60;99.90
48744;DHT22;34538;48.836;9.174;2023-04-01T09:19:52;9.70;99.90
48744;DHT22;34538;48.836;9.174;2023-04-01T09:22:42;9.80;99.90
48744;DHT22;34538;48.836;9.174;2023-04-01T09:25:33;9.90;99.90
48744;DHT22;34538;48.836;9.174;2023-04-01T09:28:10;10.00;99.90
48744;DHT22;34538;48.836;9.174;2023-04-01T09:30:51;10.20;99.90
48744;DHT22;34538;48.836;9.174;2023-04-01T09:33:50;10.30;99.90
48744;DHT22;34538;48.836;9.174;2023-04-01T09:36:40;10.40;99.90
48744;DHT22;34538;48.836;9.174;2023-04-01T09:39:21;10.60;99.90
48744;DHT22;34538;48.836;9.174;2023-04-01T09:42:03;10.60;99.90
48744;DHT22;34538;48.836;9.174;2023-04-01T09:44:48;10.70;99.90
48744;DHT22;34538;48.836;9.174;2023-04-01T09:47:33;10.70;99.90
48744;DHT22;34538;48.836;9.174;2023-04-01T09:50:30;10.70;99.90
48744;DHT22;34538;48.836;9.174;2023-04-01T09:53:07;10.70;99.90
48744;DHT22;34538;48.836;9.174;2023-04-01T09:56:14;10.70;99.90
48744;DHT22;34538;48.836;9.174;2023-04-01T09:59:15;10.70;99.90
48744;DHT22;34538;48.836;9.174;2023-04-01T10:09:25;10.70;99.90
48744;DHT22;34538;48.836;9.174;2023-04-01T10:15:20;10.80;99.90
48744;DHT22;34538;48.836;9.174;2023-04-01T10:18:15;10.90;99.90
48744;DHT22;34538;48.836;9.174;2023-04-01T10:21:04;10.90;99.90
48744;DHT22;34538;48.836;9.174;2023-04-01T10:23:49;11.00;99.90
48744;DHT22;34538;48.836;9.174;2023-04-01T10:26:36;11.10;99.90
48744;DHT22;34538;48.836;9.174;2023-04-01T10:29:43;11.20;99.90
48744;DHT22;34538;48.836;9.174;2023-04-01T10:35:34;11.40;99.90
48744;DHT22;34538;48.836;9.174;2023-04-01T10:48:20;11.30;99.90
48744;DHT22;34538;48.836;9.174;2023-04-01T10:51:20;11.20;99.90
48744;DHT22;34538;48.836;9.174;2023-04-01T10:57:54;11.20;99.90
48744;DHT22;34538;48.836;9.174;2023-04-01T11:01:04;11.20;99.90
48744;DHT22;34538;48.836;9.174;2023-04-01T11:04:42;11.20;99.90
48744;DHT22;34538;48.836;9.174;2023-04-01T11:17:22;11.60;99.90
48744;DHT22;34538;48.836;9.174;2023-04-01T11:23:14;11.80;99.90
48744;DHT22;34538;48.836;9.174;2023-04-01T11:25:54;11.90;99.90
48744;DHT22;34538;48.836;9.174;2023-04-01T11:29:31;11.90;99.90
48744;DHT22;34538;48.836;9.174;2023-04-01T11:32:28;12.00;99.90
48744;DHT22;34538;48.836;9.174;2023-04-01T11:37:48;12.10;99.90
48744;DHT22;34538;48.836;9.174;2023-04-01T11:40:41;12.20;99.90
48744;DHT22;34538;48.836;9.174;2023-04-01T11:43:34;12.30;99.90
48744;DHT22;34538;48.836;9.174;2023-04-01T11:46:36;12.40;99.90
48744;DHT22;34538;48.836;9.174;2023-04-01T11:49:29;12.40;99.90
48744;DHT22;34538;48.836;9.174;2023-04-01T11:52:25;12.50;99.90
48744;DHT22;34538;48.836;9.174;2023-04-01T11:55:15;12.50;99.90
48744;DHT22;34538;48.836;9.174;2023-04-01T12:01:14;12.40;99.90
48744;DHT22;34538;48.836;9.174;2023-04-01T12:04:11;12.30;99.90
48744;DHT22;34538;48.836;9.174;2023-04-01T12:06:49;12.40;99.90
48744;DHT22;34538;48.836;9.174;2023-04-01T12:09:24;12.30;99.90
48744;DHT22;34538;48.836;9.174;2023-04-01T12:12:09;12.30;99.90
48744;DHT22;34538;48.836;9.174;2023-04-01T12:14:43;12.30;99.90
48744;DHT22;34538;48.836;9.174;2023-04-01T12:17:20;12.30;99.90
48744;DHT22;34538;48.836;9.174;2023-04-01T12:19:58;12.20;99.90
48744;DHT22;34538;48.836;9.174;2023-04-01T12:22:42;12.20;99.90
48744;DHT22;34538;48.836;9.174;2023-04-01T12:25:27;12.10;99.90
48744;DHT22;34538;48.836;9.174;2023-04-01T12:28:06;12.10;99.90
48744;DHT22;34538;48.836;9.174;2023-04-01T12:30:44;12.00;99.90
48744;DHT22;34538;48.836;9.174;2023-04-01T12:33:32;12.00;99.90
48744;DHT22;34538;48.836;9.174;2023-04-01T12:36:09;12.10;99.90
48744;DHT22;34538;48.836;9.174;2023-04-01T12:38:44;12.10;99.90
48744;DHT22;34538;48.836;9.174;2023-04-01T12:41:21;12.10;99.90
48744;DHT22;34538;48.836;9.174;2023-04-01T12:44:03;12.10;99.90
48744;DHT22;34538;48.836;9.174;2023-04-01T12:46:40;12.10;99.90
48744;DHT22;34538;48.836;9.174;2023-04-01T12:52:30;12.20;99.90
48744;DHT22;34538;48.836;9.174;2023-04-01T12:55:21;12.20;99.90
48744;DHT22;34538;48.836;9.174;2023-04-01T13:01:10;12.10;99.90
48744;DHT22;34538;48.836;9.174;2023-04-01T13:04:06;12.10;99.90
48744;DHT22;34538;48.836;9.174;2023-04-01T13:06:49;12.20;99.90
48744;DHT22;34538;48.836;9.174;2023-04-01T13:09:30;12.20;99.90
48744;DHT22;34538;48.836;9.174;2023-04-01T13:12:16;12.20;99.90
48744;DHT22;34538;48.836;9.174;2023-04-01T13:15:11;12.30;99.90
48744;DHT22;34538;48.836;9.174;2023-04-01T13:17:44;12.20;99.90
48744;DHT22;34538;48.836;9.174;2023-04-01T13:20:22;12.10;99.90
48744;DHT22;34538;48.836;9.174;2023-04-01T13:23:01;12.10;99.90
48744;DHT22;34538;48.836;9.174;2023-04-01T13:25:37;12.00;99.90
48744;DHT22;34538;48.836;9.174;2023-04-01T13:28:12;12.00;99.90
48744;DHT22;34538;48.836;9.174;2023-04-01T13:30:47;12.00;99.90
48744;DHT22;34538;48.836;9.174;2023-04-01T13:33:23;12.00;99.90
48744;DHT22;34538;48.836;9.174;2023-04-01T13:36:03;12.10;99.90
48744;DHT22;34538;48.836;9.174;2023-04-01T13:38:54;12.10;99.90
48744;DHT22;34538;48.836;9.174;2023-04-01T13:41:33;12.20;99.90
48744;DHT22;34538;48.836;9.174;2023-04-01T13:44:09;12.20;99.90
48744;DHT22;34538;48.836;9.174;2023-04-01T13:47:03;12.20;99.90
48744;DHT22;34538;48.836;9.174;2023-04-01T13:49:42;12.20;99.90
48744;DHT22;34538;48.836;9.174;2023-04-01T13:52:37;12.30;99.90
48744;DHT22;34538;48.836;9.174;2023-04-01T14:01:13;12.30;99.90
48744;DHT22;34538;48.836;9.174;2023-04-01T14:06:52;12.10;99.90
48744;DHT22;34538;48.836;9.174;2023-04-01T14:09:40;12.00;99.90
48744;DHT22;34538;48.836;9.174;2023-04-01T14:12:18;12.00;99.90
48744;DHT22;34538;48.836;9.174;2023-04-01T14:14:59;12.10;99.90
48744;DHT22;34538;48.836;9.174;2023-04-01T14:17:44;12.10;99.90
48744;DHT22;34538;48.836;9.174;2023-04-01T14:20:25;12.10;99.90
48744;DHT22;34538;48.836;9.174;2023-04-01T14:23:05;12.10;99.90
48744;DHT22;34538;48.836;9.174;2023-04-01T14:26:01;12.00;99.90
48744;DHT22;34538;48.836;9.174;2023-04-01T14:28:34;12.00;99.90
48744;DHT22;34538;48.836;9.174;2023-04-01T14:31:18;11.90;99.90
48744;DHT22;34538;48.836;9.174;2023-04-01T14:33:57;11.80;99.90
48744;DHT22;34538;48.836;9.174;2023-04-01T14:36:39;11.70;99.90
48744;DHT22;34538;48.836;9.174;2023-04-01T14:39:21;11.50;99.90
48744;DHT22;34538;48.836;9.174;2023-04-01T14:41:59;11.30;99.90
48744;DHT22;34538;48.836;9.174;2023-04-01T14:44:34;11.10;99.90
48744;DHT22;34538;48.836;9.174;2023-04-01T14:50:06;10.90;99.90
48744;DHT22;34538;48.836;9.174;2023-04-01T14:52:37;11.00;99.90
48744;DHT22;34538;48.836;9.174;2023-04-01T14:55:27;11.00;99.90
48744;DHT22;34538;48.836;9.174;2023-04-01T14:58:11;11.00;99.90
48744;DHT22;34538;48.836;9.174;2023-04-01T15:00:47;11.10;99.90
48744;DHT22;34538;48.836;9.174;2023-04-01T15:03:20;11.10;99.90
48744;DHT22;34538;48.836;9.174;2023-04-01T15:05:51;11.20;99.90
48744;DHT22;34538;48.836;9.174;2023-04-01T15:08:22;11.30;99.90
48744;DHT22;34538;48.836;9.174;2023-04-01T15:10:58;11.40;99.90
48744;DHT22;34538;48.836;9.174;2023-04-01T15:13:55;11.50;99.90
48744;DHT22;34538;48.836;9.174;2023-04-01T15:16:29;11.50;99.90
48744;DHT22;34538;48.836;9.174;2023-04-01T15:19:09;11.60;99.90
48744;DHT22;34538;48.836;9.174;2023-04-01T15:22:01;11.60;99.90
48744;DHT22;34538;48.836;9.174;2023-04-01T15:24:44;11.70;99.90
48744;DHT22;34538;48.836;9.174;2023-04-01T15:27:35;11.70;99.90
48744;DHT22;34538;48.836;9.174;2023-04-01T15:30:29;11.80;99.90
48744;DHT22;34538;48.836;9.174;2023-04-01T15:33:15;11.80;99.90
48744;DHT22;34538;48.836;9.174;2023-04-01T15:35:49;11.80;99.90
48744;DHT22;34538;48.836;9.174;2023-04-01T15:38:30;11.90;99.90
48744;DHT22;34538;48.836;9.174;2023-04-01T15:41:07;11.90;99.90
48744;DHT22;34538;48.836;9.174;2023-04-01T15:43:40;11.90;99.90
48744;DHT22;34538;48.836;9.174;2023-04-01T15:46:36;11.80;99.90
48744;DHT22;34538;48.836;9.174;2023-04-01T15:49:19;11.80;99.90
48744;DHT22;34538;48.836;9.174;2023-04-01T15:51:58;11.80;99.90
48744;DHT22;34538;48.836;9.174;2023-04-01T15:55:08;11.80;99.90
48744;DHT22;34538;48.836;9.174;2023-04-01T15:57:47;11.70;99.90
48744;DHT22;34538;48.836;9.174;2023-04-01T16:00:28;11.70;99.90
48744;DHT22;34538;48.836;9.174;2023-04-01T16:03:15;11.70;99.90
48744;DHT22;34538;48.836;9.174;2023-04-01T16:05:55;11.60;99.90
48744;DHT22;34538;48.836;9.174;2023-04-01T16:08:59;11.60;99.90
48744;DHT22;34538;48.836;9.174;2023-04-01T16:11:34;11.60;99.90
48744;DHT22;34538;48.836;9.174;2023-04-01T16:14:18;11.60;99.90
48744;DHT22;34538;48.836;9.174;2023-04-01T16:17:11;11.50;99.90
48744;DHT22;34538;48.836;9.174;2023-04-01T16:19:51;11.50;99.90
48744;DHT22;34538;48.836;9.174;2023-04-01T16:22:23;11.50;99.90
48744;DHT22;34538;48.836;9.174;2023-04-01T16:24:56;11.50;99.90
48744;DHT22;34538;48.836;9.174;2023-04-01T16:27:32;11.50;99.90
48744;DHT22;34538;48.836;9.174;2023-04-01T16:30:03;11.40;99.90
48744;DHT22;34538;48.836;9.174;2023-04-01T16:32:45;11.40;99.90
48744;DHT22;34538;48.836;9.174;2023-04-01T16:35:24;11.40;99.90
48744;DHT22;34538;48.836;9.174;2023-04-01T16:37:55;11.40;99.90
48744;DHT22;34538;48.836;9.174;2023-04-01T16:40:32;11.40;99.90
48744;DHT22;34538;48.836;9.174;2023-04-01T16:43:10;11.40;99.90
48744;DHT22;34538;48.836;9.174;2023-04-01T16:45:41;11.40;99.90
48744;DHT22;34538;48.836;9.174;2023-04-01T16:48:12;11.30;99.90
48744;DHT22;34538;48.836;9.174;2023-04-01T16:50:49;11.30;99.90
48744;DHT22;34538;48.836;9.174;2023-04-01T16:53:25;11.30;99.90
48744;DHT22;34538;48.836;9.174;2023-04-01T16:55:55;11.30;99.90
48744;DHT22;34538;48.836;9.174;2023-04-01T16:58:27;11.30;99.90
48744;DHT22;34538;48.836;9.174;2023-04-01T17:01:02;11.30;99.90
48744;DHT22;34538;48.836;9.174;2023-04-01T17:03:32;11.30;99.90
48744;DHT22;34538;48.836;9.174;2023-04-01T17:06:12;11.20;99.90
48744;DHT22;34538;48.836;9.174;2023-04-01T17:08:59;11.20;99.90
48744;DHT22;34538;48.836;9.174;2023-04-01T17:11:35;11.20;99.90
48744;DHT22;34538;48.836;9.174;2023-04-01T17:14:14;11.20;99.90
48744;DHT22;34538;48.836;9.174;2023-04-01T17:16:54;11.20;99.90
48744;DHT22;34538;48.836;9.174;2023-04-01T17:19:36;11.10;99.90
48744;DHT22;34538;48.836;9.174;2023-04-01T17:22:18;11.20;99.90
48744;DHT22;34538;48.836;9.174;2023-04-01T17:24:58;11.10;99.90
48744;DHT22;34538;48.836;9.174;2023-04-01T17:27:36;11.10;99.90
48744;DHT22;34538;48.836;9.174;2023-04-01T17:30:17;11.10;99.90
48744;DHT22;34538;48.836;9.174;2023-04-01T17:32:57;11.10;99.90
48744;DHT22;34538;48.836;9.174;2023-04-01T17:35:31;11.10;99.90
48744;DHT22;34538;48.836;9.174;2023-04-01T17:38:09;11.10;99.90
48744;DHT22;34538;48.836;9.174;2023-04-01T17:40:50;11.20;99.90
48744;DHT22;34538;48.836;9.174;2023-04-01T17:43:26;11.20;99.90
48744;DHT22;34538;48.836;9.174;2023-04-01T17:45:57;11.20;99.90
48744;DHT22;34538;48.836;9.174;2023-04-01T17:48:32;11.20;99.90
48744;DHT22;34538;48.836;9.174;2023-04-01T17:51:14;11.20;99.90
48744;DHT22;34538;48.836;9.174;2023-04-01T17:53:50;11.20;99.90
48744;DHT22;34538;48.836;9.174;2023-04-01T17:56:27;11.10;99.90
48744;DHT22;34538;48.836;9.174;2023-04-01T17:59:00;11.20;99.90
48744;DHT22;34538;48.836;9.174;2023-04-01T18:01:46;11.10;99.90
48744;DHT22;34538;48.836;9.174;2023-04-01T18:04:30;11.00;99.90
48744;DHT22;34538;48.836;9.174;2023-04-01T18:10:04;10.80;99.90
48744;DHT22;34538;48.836;9.174;2023-04-01T18:12:44;10.70;99.90
48744;DHT22;34538;48.836;9.174;2023-04-01T18:15:25;10.50;99.90